Time;durP1;ratioP1;P1;durP2;ratioP2;P2;SDS_P1;SDS_P2;PMS_P1;PMS_P2;Temp;Humidity;BMP_temperature;BMP_pressure;BME280_temperature;BME280_humidity;BME280_pressure;Samples;Min_cycle;Max_cycle;Signal;HPM_P1;HPM_P2
2021/04/06 00:00:01;;;;;;;8.30;5.63;;;;;;;;;;2052880;28;20187;-59
2021/04/06 00:01:04;;;;;;;8.70;5.33;;;;;;;;;;2053419;28;20538;-57
2021/04/06 00:02:23;;;;;;;5.93;4.53;;;;;;;;;;2048305;29;20409;-59
2021/04/06 00:03:25;;;;;;;6.37;5.67;;;;;;;;;;2045983;29;20443;-56
2021/04/06 00:04:31;;;;;;;7.07;5.47;;;;;;;;;;2054473;28;20447;-60
2021/04/06 00:05:32;;;;;;;7.13;5.63;;;;;;;;;;2053769;28;20420;-57
2021/04/06 00:06:34;;;;;;;7.47;5.80;;;;;;;;;;2046363;28;20421;-59
2021/04/06 00:07:35;;;;;;;6.23;5.47;;;;;;;;;;2044654;29;20414;-57
2021/04/06 00:08:36;;;;;;;7.20;5.53;;;;;;;;;;2047234;28;20831;-60
2021/04/06 00:09:36;;;;;;;9.80;6.00;;;;;;;;;;2044937;29;20453;-60
2021/04/06 00:10:46;;;;;;;7.67;6.23;;;;;;;;;;2047170;28;20246;-58
2021/04/06 00:11:47;;;;;;;5.90;4.73;;;;;;;;;;2046241;29;20180;-59
2021/04/06 00:12:49;;;;;;;5.67;5.07;;;;;;;;;;2045757;28;20487;-57
2021/04/06 00:13:50;;;;;;;7.33;5.30;;;;;;;;;;2044105;29;20179;-54
2021/04/06 00:14:51;;;;;;;7.93;5.37;;;;;;;;;;2054046;28;21031;-55
2021/04/06 00:15:52;;;;;;;7.87;4.80;;;;;;;;;;2055084;28;20318;-60
2021/04/06 00:16:53;;;;;;;5.77;4.93;;;;;;;;;;2045012;28;20429;-59
2021/04/06 00:17:55;;;;;;;5.40;4.90;;;;;;;;;;2047112;29;20191;-58
2021/04/06 00:18:56;;;;;;;6.50;5.30;;;;;;;;;;2046981;29;20175;-60
2021/04/06 00:19:58;;;;;;;7.83;5.60;;;;;;;;;;2047022;28;20928;-57
2021/04/06 00:20:59;;;;;;;5.47;4.97;;;;;;;;;;2053670;28;20420;-58
2021/04/06 00:22:00;;;;;;;6.67;4.90;;;;;;;;;;2054647;28;20961;-57
2021/04/06 00:23:01;;;;;;;5.37;4.87;;;;;;;;;;2045634;28;20454;-58
2021/04/06 00:24:03;;;;;;;6.67;4.90;;;;;;;;;;2045774;28;20184;-61
2021/04/06 00:25:05;;;;;;;5.60;5.10;;;;;;;;;;2047399;29;20419;-60
2021/04/06 00:26:06;;;;;;;9.93;6.50;;;;;;;;;;2047890;29;20532;-58
2021/04/06 00:27:06;;;;;;;8.13;5.77;;;;;;;;;;2041382;29;20422;-59
2021/04/06 00:28:07;;;;;;;8.50;5.63;;;;;;;;;;2045092;29;20657;-59
2021/04/06 00:29:08;;;;;;;5.50;4.83;;;;;;;;;;2046449;29;20640;-57
2021/04/06 00:30:10;;;;;;;9.37;5.30;;;;;;;;;;2045190;29;20472;-58
2021/04/06 00:31:11;;;;;;;9.43;5.40;;;;;;;;;;2046032;29;20180;-58
2021/04/06 00:32:13;;;;;;;8.53;5.67;;;;;;;;;;2036356;29;20430;-57
2021/04/06 00:33:13;;;;;;;10.20;5.77;;;;;;;;;;2045577;29;20472;-56
2021/04/06 00:34:15;;;;;;;6.03;4.97;;;;;;;;;;2046379;29;20528;-56
2021/04/06 00:35:16;;;;;;;7.47;5.50;;;;;;;;;;2043945;29;20672;-56
2021/04/06 00:36:23;;;;;;;8.27;5.13;;;;;;;;;;2047144;28;20444;-57
2021/04/06 00:37:23;;;;;;;5.47;4.37;;;;;;;;;;2045689;29;20175;-58
2021/04/06 00:38:26;;;;;;;10.27;5.10;;;;;;;;;;2046032;28;20438;-57
2021/04/06 00:39:27;;;;;;;7.67;5.00;;;;;;;;;;2047040;28;20211;-57
2021/04/06 00:40:31;;;;;;;5.90;5.10;;;;;;;;;;2045458;28;20784;-59
2021/04/06 00:41:31;;;;;;;6.30;4.93;;;;;;;;;;2046500;28;20948;-56
2021/04/06 00:42:33;;;;;;;10.87;5.33;;;;;;;;;;2044762;28;20409;-56
2021/04/06 00:43:43;;;;;;;5.60;5.10;;;;;;;;;;2044460;29;20221;-55
2021/04/06 00:44:47;;;;;;;7.63;4.83;;;;;;;;;;2044923;29;20437;-54
2021/04/06 00:45:47;;;;;;;10.40;4.70;;;;;;;;;;2047156;29;20417;-57
2021/04/06 00:46:48;;;;;;;7.93;5.30;;;;;;;;;;2053511;28;20781;-53
2021/04/06 00:47:58;;;;;;;8.70;5.47;;;;;;;;;;2049043;29;20170;-58
2021/04/06 00:48:59;;;;;;;8.40;4.97;;;;;;;;;;2048407;29;20179;-57
2021/04/06 00:50:07;;;;;;;7.97;5.13;;;;;;;;;;2052488;28;20496;-57
2021/04/06 00:51:09;;;;;;;11.53;5.80;;;;;;;;;;2051252;28;20561;-55
2021/04/06 00:52:11;;;;;;;9.10;5.07;;;;;;;;;;2053916;28;20440;-57
2021/04/06 00:53:11;;;;;;;10.57;5.47;;;;;;;;;;2052067;28;20416;-58
2021/04/06 00:54:14;;;;;;;7.17;4.63;;;;;;;;;;2045338;28;20707;-58
2021/04/06 00:55:16;;;;;;;8.80;5.33;;;;;;;;;;2047169;29;20238;-58
2021/04/06 00:56:16;;;;;;;8.53;5.27;;;;;;;;;;2046690;29;20417;-61
2021/04/06 00:57:17;;;;;;;10.13;5.13;;;;;;;;;;2044910;29;20768;-55
2021/04/06 00:58:17;;;;;;;9.57;5.40;;;;;;;;;;2046566;28;20671;-56
2021/04/06 00:59:21;;;;;;;7.50;4.87;;;;;;;;;;2052301;28;20270;-59
2021/04/06 01:00:29;;;;;;;8.07;5.77;;;;;;;;;;2054009;28;20216;-55
2021/04/06 01:01:34;;;;;;;7.43;5.57;;;;;;;;;;2046409;29;20489;-59
2021/04/06 01:02:34;;;;;;;8.13;6.30;;;;;;;;;;2049096;29;21757;-57
2021/04/06 01:03:36;;;;;;;9.17;5.93;;;;;;;;;;2040622;29;20425;-59
2021/04/06 01:04:37;;;;;;;9.53;5.87;;;;;;;;;;2040944;29;20273;-53
2021/04/06 01:05:56;;;;;;;10.00;6.17;;;;;;;;;;2049040;29;20421;-59
2021/04/06 01:06:57;;;;;;;11.50;6.13;;;;;;;;;;2044779;29;20497;-58
2021/04/06 01:07:58;;;;;;;8.07;5.73;;;;;;;;;;2046637;28;20484;-58
2021/04/06 01:08:58;;;;;;;11.00;6.10;;;;;;;;;;2047001;29;20186;-57
2021/04/06 01:10:00;;;;;;;9.97;6.10;;;;;;;;;;2054229;28;20204;-59
2021/04/06 01:11:01;;;;;;;9.70;6.03;;;;;;;;;;2052521;28;20586;-60
2021/04/06 01:12:02;;;;;;;7.27;5.60;;;;;;;;;;2046151;28;20423;-57
2021/04/06 01:13:02;;;;;;;9.97;7.20;;;;;;;;;;2047065;28;20216;-60
2021/04/06 01:14:03;;;;;;;13.17;7.17;;;;;;;;;;2045254;28;20460;-60
2021/04/06 01:15:04;;;;;;;9.13;7.57;;;;;;;;;;2045489;29;20239;-58
2021/04/06 01:16:05;;;;;;;12.57;7.67;;;;;;;;;;2045492;28;20183;-59
2021/04/06 01:17:06;;;;;;;11.23;7.43;;;;;;;;;;2045032;29;20462;-57
2021/04/06 01:18:07;;;;;;;12.13;7.60;;;;;;;;;;2044573;29;20183;-60
2021/04/06 01:19:07;;;;;;;10.57;7.47;;;;;;;;;;2046042;29;20422;-60
2021/04/06 01:20:18;;;;;;;12.17;8.47;;;;;;;;;;2052564;28;20269;-58
2021/04/06 01:21:18;;;;;;;12.47;9.63;;;;;;;;;;2050851;28;20238;-59
2021/04/06 01:22:19;;;;;;;11.87;9.10;;;;;;;;;;2048854;29;20413;-58
2021/04/06 01:23:19;;;;;;;12.67;8.67;;;;;;;;;;2046276;28;20211;-58
2021/04/06 01:24:20;;;;;;;11.13;9.23;;;;;;;;;;2046079;28;20218;-57
2021/04/06 01:25:21;;;;;;;14.47;10.63;;;;;;;;;;2044903;29;20199;-60
2021/04/06 01:26:22;;;;;;;13.87;9.97;;;;;;;;;;2053281;28;20174;-59
2021/04/06 01:27:22;;;;;;;18.33;10.30;;;;;;;;;;2052277;28;20785;-54
2021/04/06 01:28:27;;;;;;;11.37;9.20;;;;;;;;;;2048835;28;20174;-59
2021/04/06 01:29:27;;;;;;;13.73;9.67;;;;;;;;;;2044487;29;20350;-58
2021/04/06 01:30:43;;;;;;;14.40;10.60;;;;;;;;;;2046779;29;20932;-59
2021/04/06 01:31:44;;;;;;;9.30;8.33;;;;;;;;;;2045358;29;20222;-53
2021/04/06 01:32:45;;;;;;;9.83;8.03;;;;;;;;;;2052591;28;20416;-56
2021/04/06 01:33:45;;;;;;;11.40;9.50;;;;;;;;;;2052317;28;20413;-57
2021/04/06 01:34:45;;;;;;;13.13;8.70;;;;;;;;;;2048527;28;20679;-58
2021/04/06 01:35:46;;;;;;;14.93;9.30;;;;;;;;;;2044710;29;20167;-55
2021/04/06 01:36:47;;;;;;;11.37;8.30;;;;;;;;;;2046799;29;20583;-59
2021/04/06 01:37:47;;;;;;;11.03;8.27;;;;;;;;;;2047796;28;20202;-56
2021/04/06 01:38:49;;;;;;;10.93;8.03;;;;;;;;;;2054053;28;20182;-58
2021/04/06 01:39:52;;;;;;;8.67;7.17;;;;;;;;;;2053748;28;20179;-55
2021/04/06 01:40:53;;;;;;;9.67;6.90;;;;;;;;;;2046703;28;21004;-59
2021/04/06 01:42:02;;;;;;;8.93;7.27;;;;;;;;;;2051317;28;20419;-58
2021/04/06 01:43:03;;;;;;;7.90;5.80;;;;;;;;;;2046001;29;20452;-55
2021/04/06 01:44:03;;;;;;;10.97;6.40;;;;;;;;;;2042919;29;20414;-56
2021/04/06 01:45:07;;;;;;;12.40;6.27;;;;;;;;;;2044592;29;20637;-57
2021/04/06 01:46:19;;;;;;;7.33;5.60;;;;;;;;;;2046099;29;20190;-56
2021/04/06 01:47:22;;;;;;;8.47;6.40;;;;;;;;;;2046099;29;20498;-59
2021/04/06 01:48:22;;;;;;;10.47;5.73;;;;;;;;;;2044029;29;20914;-57
2021/04/06 01:49:23;;;;;;;7.40;5.10;;;;;;;;;;2048459;29;20508;-53
2021/04/06 01:50:23;;;;;;;6.90;6.30;;;;;;;;;;2048411;29;20171;-56
2021/04/06 01:51:24;;;;;;;6.47;5.23;;;;;;;;;;2045425;28;20187;-55
2021/04/06 01:52:25;;;;;;;8.67;5.10;;;;;;;;;;2045136;29;20182;-59
2021/04/06 01:53:25;;;;;;;7.03;5.00;;;;;;;;;;2040197;29;20880;-53
2021/04/06 01:54:29;;;;;;;5.20;4.70;;;;;;;;;;2040432;29;20598;-53
2021/04/06 01:55:31;;;;;;;9.03;4.40;;;;;;;;;;2046780;28;20210;-53
2021/04/06 01:56:34;;;;;;;4.73;4.33;;;;;;;;;;2044414;28;20428;-55
2021/04/06 01:57:38;;;;;;;6.30;4.43;;;;;;;;;;2046515;29;20418;-53
2021/04/06 01:58:41;;;;;;;9.10;3.80;;;;;;;;;;2050277;28;20507;-58
2021/04/06 01:59:45;;;;;;;5.23;3.87;;;;;;;;;;2053767;28;20468;-56
2021/04/06 02:01:48;;;;;;;6.50;3.87;;;;;;;;;;2045418;29;20843;-55
2021/04/06 02:02:49;;;;;;;5.07;4.10;;;;;;;;;;2044668;28;21168;-53
2021/04/06 02:04:12;;;;;;;4.60;4.20;;;;;;;;;;2047535;29;20417;-59
2021/04/06 02:05:13;;;;;;;3.70;3.40;;;;;;;;;;2047252;28;20218;-57
2021/04/06 02:06:14;;;;;;;6.60;4.13;;;;;;;;;;2048344;28;20526;-58
2021/04/06 02:07:15;;;;;;;6.07;3.77;;;;;;;;;;2045076;28;20798;-58
2021/04/06 02:08:18;;;;;;;4.67;4.20;;;;;;;;;;2051298;28;20194;-51
2021/04/06 02:09:19;;;;;;;6.33;3.97;;;;;;;;;;2052269;28;21015;-52
2021/04/06 02:10:20;;;;;;;4.37;4.00;;;;;;;;;;2048829;29;20784;-59
2021/04/06 02:11:24;;;;;;;4.53;4.10;;;;;;;;;;2046384;28;20413;-59
2021/04/06 02:12:25;;;;;;;7.73;4.00;;;;;;;;;;2045480;29;20275;-58
2021/04/06 02:13:25;;;;;;;6.00;3.97;;;;;;;;;;2046046;28;20432;-58
2021/04/06 02:14:25;;;;;;;6.13;3.73;;;;;;;;;;2046742;28;20195;-59
2021/04/06 02:15:26;;;;;;;5.43;3.80;;;;;;;;;;2045933;29;20681;-59
2021/04/06 02:16:26;;;;;;;4.53;4.07;;;;;;;;;;2048289;29;20265;-59
2021/04/06 02:17:26;;;;;;;7.50;4.00;;;;;;;;;;2044172;28;20175;-59
2021/04/06 02:18:27;;;;;;;6.10;4.17;;;;;;;;;;2046170;28;20211;-59
2021/04/06 02:19:37;;;;;;;4.40;4.00;;;;;;;;;;2046192;29;20310;-60
2021/04/06 02:20:37;;;;;;;5.97;4.43;;;;;;;;;;2045609;28;20417;-59
2021/04/06 02:21:51;;;;;;;6.37;3.80;;;;;;;;;;2054803;28;20411;-61
2021/04/06 02:22:58;;;;;;;6.97;4.50;;;;;;;;;;2046240;29;20704;-59
2021/04/06 02:23:58;;;;;;;4.03;3.73;;;;;;;;;;2044593;29;20442;-58
2021/04/06 02:24:59;;;;;;;7.33;3.67;;;;;;;;;;2046975;28;20414;-58
2021/04/06 02:26:00;;;;;;;9.10;4.03;;;;;;;;;;2047144;28;20183;-59
2021/04/06 02:27:01;;;;;;;5.30;4.27;;;;;;;;;;2046311;28;20361;-61
2021/04/06 02:28:01;;;;;;;4.90;4.50;;;;;;;;;;2054124;28;20200;-58
2021/04/06 02:29:01;;;;;;;4.47;4.07;;;;;;;;;;2052870;28;20435;-59
2021/04/06 02:30:08;;;;;;;5.50;4.80;;;;;;;;;;2046273;28;20185;-59
2021/04/06 02:31:08;;;;;;;5.73;4.60;;;;;;;;;;2046401;29;20223;-58
2021/04/06 02:32:09;;;;;;;4.80;4.40;;;;;;;;;;2045109;28;20552;-59
2021/04/06 02:33:09;;;;;;;5.17;4.67;;;;;;;;;;2045132;29;20668;-59
2021/04/06 02:34:10;;;;;;;6.37;5.23;;;;;;;;;;2048540;29;20190;-58
2021/04/06 02:35:11;;;;;;;5.37;4.93;;;;;;;;;;2043716;29;20183;-59
2021/04/06 02:36:12;;;;;;;5.60;4.90;;;;;;;;;;2047005;29;20179;-59
2021/04/06 02:37:13;;;;;;;6.17;5.20;;;;;;;;;;2044944;28;20405;-60
2021/04/06 02:38:14;;;;;;;8.00;5.53;;;;;;;;;;2045638;29;20274;-57
2021/04/06 02:39:14;;;;;;;5.33;4.70;;;;;;;;;;2053740;28;20423;-60
2021/04/06 02:40:16;;;;;;;5.97;5.30;;;;;;;;;;2048929;28;20206;-55
2021/04/06 02:41:17;;;;;;;5.13;4.63;;;;;;;;;;2046400;28;20178;-57
2021/04/06 02:42:25;;;;;;;5.80;5.23;;;;;;;;;;2046929;28;20507;-55
2021/04/06 02:43:39;;;;;;;5.43;4.80;;;;;;;;;;2043463;28;20962;-57
2021/04/06 02:44:39;;;;;;;5.17;4.80;;;;;;;;;;2044831;29;20434;-55
2021/04/06 02:45:39;;;;;;;5.37;4.80;;;;;;;;;;2046289;29;20460;-58
2021/04/06 02:46:41;;;;;;;6.57;4.53;;;;;;;;;;2043066;29;20649;-57
2021/04/06 02:47:45;;;;;;;7.03;4.90;;;;;;;;;;2044354;28;20662;-57
2021/04/06 02:48:45;;;;;;;7.83;4.43;;;;;;;;;;2052540;28;20480;-58
2021/04/06 02:49:45;;;;;;;4.60;4.20;;;;;;;;;;2053383;28;20430;-57
2021/04/06 02:50:47;;;;;;;7.10;4.93;;;;;;;;;;2043120;29;20239;-57
2021/04/06 02:51:47;;;;;;;5.27;4.87;;;;;;;;;;2046299;28;20180;-55
2021/04/06 02:52:47;;;;;;;4.77;4.40;;;;;;;;;;2044733;28;20427;-59
2021/04/06 02:53:49;;;;;;;6.07;4.97;;;;;;;;;;2046615;29;20218;-59
2021/04/06 02:54:49;;;;;;;6.07;5.37;;;;;;;;;;2052242;28;20306;-59
2021/04/06 02:55:51;;;;;;;5.80;5.40;;;;;;;;;;2052713;28;20401;-59
2021/04/06 02:56:51;;;;;;;7.63;6.40;;;;;;;;;;2048082;29;20210;-56
2021/04/06 02:57:53;;;;;;;6.73;6.07;;;;;;;;;;2045722;28;20414;-56
2021/04/06 02:58:53;;;;;;;6.10;5.37;;;;;;;;;;2046466;29;20271;-58
2021/04/06 02:59:53;;;;;;;8.00;6.00;;;;;;;;;;2044112;28;20847;-53
2021/04/06 03:01:08;;;;;;;6.50;5.90;;;;;;;;;;2052939;28;20171;-55
2021/04/06 03:02:09;;;;;;;6.43;5.87;;;;;;;;;;2050691;28;20265;-57
2021/04/06 03:03:22;;;;;;;7.17;6.47;;;;;;;;;;2047913;28;20444;-53
2021/04/06 03:04:24;;;;;;;7.23;6.63;;;;;;;;;;2045695;28;20215;-58
2021/04/06 03:05:27;;;;;;;8.87;7.27;;;;;;;;;;2059701;23;20399;-58
2021/04/06 03:06:32;;;;;;;8.47;7.10;;;;;;;;;;2045220;29;20757;-60
2021/04/06 03:07:43;;;;;;;9.80;7.10;;;;;;;;;;2041858;29;20410;-60
2021/04/06 03:08:43;;;;;;;7.33;6.60;;;;;;;;;;2040853;29;20902;-60
2021/04/06 03:09:57;;;;;;;9.53;6.87;;;;;;;;;;2042557;29;20508;-59
2021/04/06 03:10:57;;;;;;;9.80;7.17;;;;;;;;;;2040803;29;20171;-58
2021/04/06 03:11:58;;;;;;;8.70;7.27;;;;;;;;;;2040071;29;20430;-59
2021/04/06 03:13:05;;;;;;;7.07;6.37;;;;;;;;;;2039467;29;20203;-59
2021/04/06 03:14:05;;;;;;;8.23;7.43;;;;;;;;;;2041110;29;20563;-60
2021/04/06 03:15:06;;;;;;;10.07;7.53;;;;;;;;;;2041035;29;20433;-59
2021/04/06 03:16:07;;;;;;;7.03;6.43;;;;;;;;;;2042304;29;20183;-59
2021/04/06 03:17:07;;;;;;;9.67;6.97;;;;;;;;;;2041788;29;20235;-61
2021/04/06 03:18:11;;;;;;;7.63;6.67;;;;;;;;;;2041386;29;20516;-59
2021/04/06 03:19:12;;;;;;;6.97;6.33;;;;;;;;;;2039769;29;20267;-61
2021/04/06 03:20:12;;;;;;;7.30;6.60;;;;;;;;;;2042083;29;20424;-60
2021/04/06 03:21:13;;;;;;;7.80;7.00;;;;;;;;;;2039761;29;20664;-60
2021/04/06 03:22:13;;;;;;;7.30;6.63;;;;;;;;;;2038574;29;20176;-59
2021/04/06 03:23:14;;;;;;;6.77;6.10;;;;;;;;;;2042767;29;20187;-57
2021/04/06 03:24:16;;;;;;;7.13;6.10;;;;;;;;;;2043711;28;20250;-59
2021/04/06 03:25:16;;;;;;;6.90;6.30;;;;;;;;;;2041861;29;20266;-58
2021/04/06 03:26:17;;;;;;;8.33;6.13;;;;;;;;;;2039758;29;20403;-59
2021/04/06 03:27:26;;;;;;;8.17;6.57;;;;;;;;;;2037547;29;20176;-59
2021/04/06 03:28:33;;;;;;;8.07;5.67;;;;;;;;;;2041900;28;20171;-58
2021/04/06 03:29:34;;;;;;;7.37;6.13;;;;;;;;;;2046422;28;20465;-60
2021/04/06 03:30:34;;;;;;;5.80;5.30;;;;;;;;;;2040011;29;20446;-60
2021/04/06 03:31:35;;;;;;;6.03;5.43;;;;;;;;;;2045545;29;20171;-61
2021/04/06 03:32:35;;;;;;;6.70;5.77;;;;;;;;;;2047150;28;20221;-58
2021/04/06 03:33:36;;;;;;;5.80;5.30;;;;;;;;;;2040879;29;20167;-59
2021/04/06 03:34:38;;;;;;;6.60;5.47;;;;;;;;;;2047167;29;20179;-62
2021/04/06 03:35:39;;;;;;;5.53;5.10;;;;;;;;;;2045004;29;21013;-62
2021/04/06 03:36:40;;;;;;;6.57;5.03;;;;;;;;;;2039337;29;20782;-61
2021/04/06 03:37:40;;;;;;;5.30;4.80;;;;;;;;;;2036964;29;20402;-62
2021/04/06 03:38:41;;;;;;;5.10;4.63;;;;;;;;;;2041990;29;20206;-61
2021/04/06 03:39:42;;;;;;;5.30;4.80;;;;;;;;;;2038941;29;20180;-60
2021/04/06 03:40:42;;;;;;;5.67;4.70;;;;;;;;;;2042595;28;20167;-61
2021/04/06 03:41:42;;;;;;;9.27;5.20;;;;;;;;;;2041724;29;20417;-60
2021/04/06 03:42:43;;;;;;;4.57;4.17;;;;;;;;;;2046548;29;20186;-60
2021/04/06 03:43:43;;;;;;;5.67;4.00;;;;;;;;;;2044266;28;20692;-61
2021/04/06 03:44:43;;;;;;;5.37;4.43;;;;;;;;;;2039731;29;20177;-61
2021/04/06 03:45:53;;;;;;;6.07;4.20;;;;;;;;;;2040673;29;21489;-61
2021/04/06 03:47:03;;;;;;;4.47;4.13;;;;;;;;;;2040773;29;20172;-60
2021/04/06 03:48:04;;;;;;;4.27;3.87;;;;;;;;;;2039328;29;20426;-61
2021/04/06 03:49:18;;;;;;;3.67;3.37;;;;;;;;;;2037256;29;20411;-60
2021/04/06 03:50:37;;;;;;;5.50;4.30;;;;;;;;;;2040769;29;20203;-61
2021/04/06 03:51:45;;;;;;;4.67;3.60;;;;;;;;;;2040997;29;20452;-60
2021/04/06 03:52:58;;;;;;;4.63;3.63;;;;;;;;;;2039126;29;20426;-59
2021/04/06 03:53:58;;;;;;;9.87;3.70;;;;;;;;;;2042507;29;20816;-60
2021/04/06 03:55:08;;;;;;;4.27;3.87;;;;;;;;;;2038052;29;20421;-59
2021/04/06 03:56:12;;;;;;;4.10;3.70;;;;;;;;;;2039196;29;20215;-59
2021/04/06 03:57:27;;;;;;;6.37;3.80;;;;;;;;;;2038280;29;20410;-60
2021/04/06 03:58:32;;;;;;;5.27;3.60;;;;;;;;;;2040548;29;20445;-59
2021/04/06 03:59:33;;;;;;;7.73;3.60;;;;;;;;;;2042691;29;20496;-59
2021/04/06 04:00:34;;;;;;;6.30;3.90;;;;;;;;;;2044893;29;20455;-61
2021/04/06 04:01:34;;;;;;;8.37;4.03;;;;;;;;;;2041324;29;20791;-61
2021/04/06 04:02:35;;;;;;;6.93;3.40;;;;;;;;;;2038374;29;20545;-58
2021/04/06 04:03:35;;;;;;;5.80;3.60;;;;;;;;;;2038963;29;20188;-61
2021/04/06 04:04:37;;;;;;;4.63;3.27;;;;;;;;;;2039639;29;20182;-59
2021/04/06 04:05:38;;;;;;;7.00;3.77;;;;;;;;;;2039690;29;20207;-59
2021/04/06 04:06:38;;;;;;;6.97;3.60;;;;;;;;;;2042653;29;20406;-59
2021/04/06 04:07:38;;;;;;;4.77;3.57;;;;;;;;;;2042853;29;20183;-60
2021/04/06 04:08:39;;;;;;;4.33;3.93;;;;;;;;;;2042171;29;20731;-61
2021/04/06 04:09:39;;;;;;;6.07;4.23;;;;;;;;;;2041677;29;20195;-59
2021/04/06 04:10:39;;;;;;;4.80;3.80;;;;;;;;;;2041624;29;20164;-59
2021/04/06 04:11:40;;;;;;;8.13;4.17;;;;;;;;;;2039248;29;20595;-59
2021/04/06 04:12:40;;;;;;;6.20;3.97;;;;;;;;;;2037857;29;20255;-60
2021/04/06 04:13:41;;;;;;;7.53;4.10;;;;;;;;;;2043141;29;20417;-62
2021/04/06 04:14:41;;;;;;;4.90;4.10;;;;;;;;;;2042515;29;20625;-60
2021/04/06 04:15:41;;;;;;;5.17;4.60;;;;;;;;;;2041575;29;20200;-61
2021/04/06 04:16:41;;;;;;;5.10;4.70;;;;;;;;;;2041246;29;20168;-60
2021/04/06 04:17:42;;;;;;;6.73;5.60;;;;;;;;;;2041531;29;20535;-61
2021/04/06 04:18:42;;;;;;;8.40;5.07;;;;;;;;;;2041124;29;20205;-59
2021/04/06 04:19:42;;;;;;;6.60;5.10;;;;;;;;;;2039503;29;20271;-60
2021/04/06 04:20:43;;;;;;;6.87;5.57;;;;;;;;;;2037393;29;20219;-60
2021/04/06 04:21:43;;;;;;;8.00;6.10;;;;;;;;;;2039637;29;20175;-62
2021/04/06 04:22:43;;;;;;;5.10;4.57;;;;;;;;;;2037123;29;20176;-59
2021/04/06 04:23:44;;;;;;;7.73;5.93;;;;;;;;;;2042941;29;20787;-62
2021/04/06 04:24:44;;;;;;;8.43;5.60;;;;;;;;;;2039590;29;20211;-61
2021/04/06 04:25:44;;;;;;;6.67;5.20;;;;;;;;;;2036676;29;20196;-62
2021/04/06 04:26:44;;;;;;;8.20;5.53;;;;;;;;;;2040275;29;20180;-61
2021/04/06 04:27:45;;;;;;;6.50;5.23;;;;;;;;;;2039463;29;20180;-61
2021/04/06 04:28:45;;;;;;;7.10;5.40;;;;;;;;;;2042602;29;20664;-60
2021/04/06 04:29:45;;;;;;;8.20;5.53;;;;;;;;;;2038819;29;20182;-61
2021/04/06 04:30:53;;;;;;;9.67;5.43;;;;;;;;;;2048301;29;20184;-60
2021/04/06 04:31:53;;;;;;;9.83;4.87;;;;;;;;;;2042880;29;20645;-57
2021/04/06 04:32:54;;;;;;;7.33;5.03;;;;;;;;;;2043322;29;20416;-56
2021/04/06 04:33:54;;;;;;;7.23;5.30;;;;;;;;;;2045230;29;20187;-59
2021/04/06 04:34:54;;;;;;;7.97;4.70;;;;;;;;;;2041027;29;20211;-60
2021/04/06 04:35:54;;;;;;;8.07;4.93;;;;;;;;;;2039453;29;20258;-60
2021/04/06 04:36:54;;;;;;;6.97;4.67;;;;;;;;;;2029904;29;20177;-59
2021/04/06 04:37:55;;;;;;;6.83;5.20;;;;;;;;;;2030205;29;20189;-58
2021/04/06 04:38:55;;;;;;;7.77;5.33;;;;;;;;;;2039706;29;20187;-57
2021/04/06 04:39:55;;;;;;;10.37;5.03;;;;;;;;;;2032657;29;20755;-60
2021/04/06 04:40:56;;;;;;;9.00;4.97;;;;;;;;;;2037276;29;20175;-60
2021/04/06 04:41:56;;;;;;;9.00;4.90;;;;;;;;;;2042411;29;20188;-62
2021/04/06 04:42:56;;;;;;;9.07;4.90;;;;;;;;;;2044818;29;20239;-59
2021/04/06 04:43:57;;;;;;;7.43;3.70;;;;;;;;;;2043584;29;20195;-61
2021/04/06 04:44:57;;;;;;;5.27;4.13;;;;;;;;;;2049998;28;20195;-61
2021/04/06 04:45:57;;;;;;;6.20;3.93;;;;;;;;;;2055414;28;20210;-61
2021/04/06 04:46:58;;;;;;;5.93;4.20;;;;;;;;;;2037758;29;20184;-58
2021/04/06 04:47:58;;;;;;;6.53;4.70;;;;;;;;;;2038085;29;20176;-57
2021/04/06 04:48:58;;;;;;;6.57;4.23;;;;;;;;;;2039192;29;20167;-58
2021/04/06 04:49:59;;;;;;;4.73;3.63;;;;;;;;;;2038723;29;20259;-57
2021/04/06 04:50:59;;;;;;;9.80;4.60;;;;;;;;;;2037335;29;20174;-60
2021/04/06 04:51:59;;;;;;;6.67;4.20;;;;;;;;;;2038652;29;20673;-58
2021/04/06 04:53:00;;;;;;;7.07;4.37;;;;;;;;;;2038469;29;20644;-58
2021/04/06 04:54:00;;;;;;;7.33;4.03;;;;;;;;;;2038463;29;20176;-57
2021/04/06 04:55:00;;;;;;;6.63;4.07;;;;;;;;;;2043000;29;20183;-60
2021/04/06 04:56:01;;;;;;;8.53;4.30;;;;;;;;;;2036622;29;20720;-56
2021/04/06 04:57:01;;;;;;;5.77;4.87;;;;;;;;;;2038121;29;20188;-58
2021/04/06 04:58:01;;;;;;;8.60;4.67;;;;;;;;;;2037076;29;20631;-60
2021/04/06 04:59:01;;;;;;;5.83;4.07;;;;;;;;;;2038190;29;20638;-59
2021/04/06 05:00:03;;;;;;;8.70;5.10;;;;;;;;;;2039732;29;20179;-61
2021/04/06 05:01:03;;;;;;;12.43;5.27;;;;;;;;;;2042937;29;20231;-55
2021/04/06 05:02:03;;;;;;;9.57;4.63;;;;;;;;;;2028535;29;20543;-61
2021/04/06 05:03:03;;;;;;;9.77;5.40;;;;;;;;;;2035808;29;20227;-59
2021/04/06 05:04:04;;;;;;;7.93;4.77;;;;;;;;;;2038746;29;20203;-60
2021/04/06 05:05:05;;;;;;;7.53;5.67;;;;;;;;;;2039124;29;20657;-60
2021/04/06 05:06:05;;;;;;;6.47;5.73;;;;;;;;;;2039297;29;20219;-60
2021/04/06 05:07:05;;;;;;;8.33;5.70;;;;;;;;;;2036723;29;20810;-56
2021/04/06 05:08:06;;;;;;;9.33;5.97;;;;;;;;;;2040890;29;20180;-59
2021/04/06 05:09:06;;;;;;;10.27;5.67;;;;;;;;;;2038779;29;20199;-59
2021/04/06 05:10:07;;;;;;;9.97;5.47;;;;;;;;;;2036648;29;20632;-57
2021/04/06 05:11:08;;;;;;;7.70;5.90;;;;;;;;;;2044209;29;20164;-56
2021/04/06 05:12:09;;;;;;;10.63;6.00;;;;;;;;;;2034461;29;20501;-55
2021/04/06 05:13:09;;;;;;;10.53;6.53;;;;;;;;;;2044933;29;20791;-56
2021/04/06 05:14:09;;;;;;;11.50;5.93;;;;;;;;;;2040311;29;20591;-54
2021/04/06 05:15:10;;;;;;;9.00;6.23;;;;;;;;;;2038353;29;20287;-58
2021/04/06 05:16:10;;;;;;;12.37;5.90;;;;;;;;;;2038880;29;20202;-55
2021/04/06 05:17:10;;;;;;;13.93;7.57;;;;;;;;;;2041006;29;20691;-54
2021/04/06 05:18:10;;;;;;;9.43;6.83;;;;;;;;;;2039337;29;20660;-56
2021/04/06 05:19:10;;;;;;;14.27;7.90;;;;;;;;;;2042107;29;20543;-57
2021/04/06 05:20:11;;;;;;;12.77;6.67;;;;;;;;;;2035872;29;20164;-59
2021/04/06 05:21:11;;;;;;;10.43;7.20;;;;;;;;;;2041370;29;20192;-56
2021/04/06 05:22:11;;;;;;;15.20;7.30;;;;;;;;;;2044463;29;20176;-54
2021/04/06 05:23:12;;;;;;;11.47;7.47;;;;;;;;;;2041093;29;20204;-60
2021/04/06 05:24:12;;;;;;;11.00;7.23;;;;;;;;;;2040895;29;20258;-60
2021/04/06 05:25:12;;;;;;;11.97;6.57;;;;;;;;;;2040241;29;20239;-59
2021/04/06 05:26:13;;;;;;;12.27;7.27;;;;;;;;;;2042306;29;20186;-57
2021/04/06 05:27:13;;;;;;;13.47;7.60;;;;;;;;;;2040464;29;20657;-59
2021/04/06 05:28:13;;;;;;;16.47;8.27;;;;;;;;;;2042743;28;20179;-62
2021/04/06 05:29:14;;;;;;;12.00;6.90;;;;;;;;;;2042000;29;20196;-61
2021/04/06 05:30:14;;;;;;;13.07;6.80;;;;;;;;;;2040339;29;20274;-60
2021/04/06 05:31:14;;;;;;;18.00;5.80;;;;;;;;;;2039543;29;20184;-59
2021/04/06 05:32:15;;;;;;;9.47;6.43;;;;;;;;;;2040019;29;20180;-59
2021/04/06 05:33:15;;;;;;;14.70;7.10;;;;;;;;;;2043124;29;20236;-58
2021/04/06 05:34:16;;;;;;;15.77;6.33;;;;;;;;;;2037295;29;20199;-58
2021/04/06 05:35:16;;;;;;;7.57;6.50;;;;;;;;;;2039662;29;20551;-58
2021/04/06 05:36:16;;;;;;;18.47;7.50;;;;;;;;;;2037681;29;20269;-60
2021/04/06 05:37:16;;;;;;;10.50;5.70;;;;;;;;;;2038244;29;20207;-58
2021/04/06 05:38:17;;;;;;;18.37;5.53;;;;;;;;;;2038367;29;20591;-55
2021/04/06 05:39:17;;;;;;;12.27;5.93;;;;;;;;;;2041542;29;20307;-56
2021/04/06 05:40:18;;;;;;;9.27;5.63;;;;;;;;;;2038411;29;20176;-56
2021/04/06 05:41:19;;;;;;;11.37;6.57;;;;;;;;;;2036117;29;20271;-65
2021/04/06 05:42:20;;;;;;;9.57;6.30;;;;;;;;;;2039527;29;20183;-59
2021/04/06 05:43:20;;;;;;;13.40;5.97;;;;;;;;;;2039772;29;20458;-59
2021/04/06 05:44:22;;;;;;;11.67;6.30;;;;;;;;;;2040534;29;20422;-55
2021/04/06 05:45:22;;;;;;;10.33;5.93;;;;;;;;;;2039387;29;20172;-56
2021/04/06 05:46:23;;;;;;;9.23;6.23;;;;;;;;;;2041700;29;20418;-60
2021/04/06 05:47:38;;;;;;;10.50;5.83;;;;;;;;;;2041992;29;20175;-57
2021/04/06 05:48:39;;;;;;;13.50;5.67;;;;;;;;;;2043339;29;20207;-60
2021/04/06 05:49:39;;;;;;;11.37;5.37;;;;;;;;;;2040595;29;20415;-56
2021/04/06 05:50:42;;;;;;;16.33;6.10;;;;;;;;;;2039450;29;20600;-58
2021/04/06 05:51:43;;;;;;;12.43;6.40;;;;;;;;;;2038858;29;20171;-59
2021/04/06 05:52:44;;;;;;;11.37;5.53;;;;;;;;;;2037965;29;20406;-58
2021/04/06 05:53:44;;;;;;;14.47;5.13;;;;;;;;;;2038628;29;20184;-58
2021/04/06 05:54:44;;;;;;;9.47;5.73;;;;;;;;;;2041210;29;20269;-58
2021/04/06 05:55:45;;;;;;;12.70;5.20;;;;;;;;;;2041527;29;20231;-56
2021/04/06 05:56:45;;;;;;;8.13;5.40;;;;;;;;;;2037536;29;20541;-62
2021/04/06 05:57:45;;;;;;;10.73;5.87;;;;;;;;;;2035694;29;20188;-59
2021/04/06 05:58:45;;;;;;;11.67;6.03;;;;;;;;;;2038343;29;20227;-59
2021/04/06 05:59:46;;;;;;;11.27;5.67;;;;;;;;;;2038739;29;20251;-61
2021/04/06 06:00:46;;;;;;;12.53;5.17;;;;;;;;;;2038753;29;20179;-59
2021/04/06 06:01:47;;;;;;;8.27;5.03;;;;;;;;;;2040906;29;20172;-58
2021/04/06 06:02:47;;;;;;;12.77;4.80;;;;;;;;;;2041779;29;20901;-59
2021/04/06 06:03:47;;;;;;;9.20;5.27;;;;;;;;;;2042708;29;20164;-60
2021/04/06 06:04:48;;;;;;;8.93;5.23;;;;;;;;;;2040701;29;20199;-59
2021/04/06 06:05:48;;;;;;;10.00;5.17;;;;;;;;;;2039049;29;20199;-59
2021/04/06 06:06:48;;;;;;;11.10;5.27;;;;;;;;;;2042139;29;20179;-58
2021/04/06 06:07:48;;;;;;;7.83;4.33;;;;;;;;;;2043428;29;20179;-56
2021/04/06 06:08:53;;;;;;;9.77;4.83;;;;;;;;;;2044997;29;20679;-58
2021/04/06 06:09:53;;;;;;;10.50;5.07;;;;;;;;;;2044697;29;20201;-56
2021/04/06 06:11:03;;;;;;;14.33;5.30;;;;;;;;;;2045583;29;20437;-55